Have a Safe July 4th! 

Flight Track Log - Related Links

Times and Time Zones

All times are in EDT time to prevent confusion due to time zone crossing. See the ASQ5685 flight status page for this flight to view local times or setup timezone preferences in your user account.

Time Position Orientation Groundspeed Altitude Reporting Facility
EDT Latitude Longitude Course Direction KTS MPH feet Rate Location/Type
Mon 02:44:37 PM 44.3883 -73.1519 195° South 199 229 4,200  Level Boston Center
Mon 02:45:37 PM 44.3361 -73.1714 195° South 244 281 7,100 2,800 Climbing Boston Center
Mon 02:46:37 PM 44.2650 -73.1994 196° South 257 296 9,800 2,000 Climbing Boston Center
Mon 02:47:37 PM 44.1856 -73.2333 197° South 286 329 11,100 1,750 Climbing Boston Center
Mon 02:48:00 PM 43.9187 -73.3592 196° South  Level FlightAware Approximate
Mon 02:48:37 PM 44.0978 -73.2697 197° South 321 369 13,300  Level Boston Center
Mon 02:49:00 PM 43.8271 -73.3936 195° South  Level FlightAware Approximate
Mon 02:49:37 PM 44.0039 -73.3058 195° South 348 400 15,100  Level Boston Center
Mon 02:50:37 PM 43.9119 -73.3450 197° South 353 406 16,700 1,450 Climbing Boston Center
Mon 02:51:37 PM 43.8117 -73.3839 196° South 365 420 18,000 1,500 Climbing Boston Center
Mon 02:52:37 PM 43.7008 -73.4281 196° South 370 426 19,700 1,500 Climbing Boston Center
Mon 02:53:37 PM 43.6086 -73.4636 196° South 375 432 21,000 1,091 Climbing Boston Center
Mon 02:54:49 PM 43.5064 -73.5019 195° South 381 438 22,100 1,136 Climbing Boston Center
Mon 02:55:49 PM 43.3808 -73.5514 196° South 386 444 23,500 1,150 Climbing Boston Center
Mon 02:56:49 PM 43.2761 -73.5978 198° South 392 451 24,400 850 Climbing Boston Center
Mon 02:57:49 PM 43.1672 -73.6386 195° South 403 464 25,200 727 Climbing Boston Center
Mon 02:59:01 PM 43.0458 -73.6872 196° South 408 470 26,000 773 Climbing Boston Center
Mon 03:00:01 PM 42.9161 -73.7386 196° South 408 470 26,900 818 Climbing Boston Center
Mon 03:01:13 PM 42.7864 -73.7894 196° South 408 470 27,800 727 Climbing Boston Center
Mon 03:02:13 PM 42.6731 -73.8378 197° South 413 475 28,500 800 Climbing Boston Center
Mon 03:03:13 PM 42.5661 -73.8892 199° South 421 484 29,400 800 Climbing Boston Center
Mon 03:04:13 PM 42.4572 -73.9400 199° South 416 479 30,100 591 Climbing Boston Center
Mon 03:05:25 PM 42.3503 -73.9881 198° South 416 479 30,700 818 Climbing Boston Center
Mon 03:06:25 PM 42.2183 -74.0381 196° South 410 472 31,900 650 Climbing Boston Center
Mon 03:07:25 PM 42.1119 -74.0436 182° South 396 456 32,000 50 Climbing Boston Center
Mon 03:08:25 PM 42.0056 -74.0494 182° South 390 449 32,000  Level Boston Center
Mon 03:09:25 PM 41.9039 -74.0133 165° South 385 443 32,000  Level Boston Center
Mon 03:10:25 PM 41.8069 -73.9442 152° Southeast 385 443 32,000  Level Boston Center
Mon 03:12:29 PM 41.6333 -73.7881 146° Southeast 392 451 32,000  Level New York Center
Mon 03:13:29 PM 41.5567 -73.6903 136° Southeast 392 451 32,000  Level New York Center
Mon 03:14:29 PM 41.4642 -73.6339 155° Southeast 385 443 32,000  Level New York Center
Mon 03:15:28 PM 41.3700 -73.6575 191° South 339 390 32,000  Level New York Center
Mon 03:16:29 PM 41.3053 -73.7431 225° Southwest 305 351 32,000  Level New York Center
Mon 03:17:30 PM 41.2547 -73.8539 239° Southwest 310 357 32,000  Level New York Center
Mon 03:18:28 PM 41.2058 -73.9619 239° Southwest 338 389 32,000 -356 Level New York Center
Mon 03:19:28 PM 41.1550 -74.0753 239° Southwest 351 404 31,300 -893 Descending New York Center
Mon 03:20:29 PM 41.0997 -74.1881 237° Southwest 372 428 30,200 -1,082 Descending New York Center
Mon 03:21:30 PM 41.0378 -74.3114 236° Southwest 372 428 29,100 -1,109 Descending New York Center
Mon 03:22:28 PM 40.9822 -74.4267 237° Southwest 372 428 28,000 -1,068 Descending New York Center
Mon 03:23:28 PM 40.9264 -74.5444 238° Southwest 383 441 27,000 -942 Descending New York Center
Mon 03:24:29 PM 40.8786 -74.6681 243° Southwest 383 441 26,100 -492 Descending New York Center
Mon 03:25:30 PM 40.8406 -74.8031 250° West 383 441 26,000 -50 Descending New York Center
Mon 03:26:28 PM 40.7883 -74.9289 241° Southwest 394 453 26,000  Level New York Center
Mon 03:27:28 PM 40.7278 -75.0483 236° Southwest 394 453 26,000  Level New York Center
Mon 03:28:29 PM 40.6689 -75.1761 239° Southwest 400 460 26,000  Level New York Center
Mon 03:29:30 PM 40.6081 -75.3033 238° Southwest 411 473 26,000 -50 Level New York Center
Mon 03:30:30 PM 40.5467 -75.4303 238° Southwest 416 479 25,900 -1,059 Descending New York Center
Mon 03:31:29 PM 40.4811 -75.5625 237° Southwest 421 484 23,900 -1,950 Descending New York Center
Mon 03:32:30 PM 40.4172 -75.6969 238° Southwest 432 497 22,000 -1,884 Descending New York Center
Mon 03:33:30 PM 40.3511 -75.8286 237° Southwest 437 503 20,100 -1,017 Descending New York Center
Mon 03:34:28 PM 40.2919 -75.9439 236° Southwest 431 496 20,000 -50 Descending New York Center
Mon 03:35:29 PM 40.2322 -76.0644 237° Southwest 426 490 20,000 -397 Level New York Center
Mon 03:36:29 PM 40.1678 -76.2008 238° Southwest 420 483 19,200 -1,109 Descending New York Center
Mon 03:37:28 PM 40.1083 -76.3156 236° Southwest 420 483 17,800 -1,400 Descending New York Center
Mon 03:38:29 PM 40.0522 -76.4414 240° Southwest 415 478 16,400 -1,388 Descending New York Center
Mon 03:39:29 PM 39.9894 -76.5772 239° Southwest 410 472 15,000 -457 Descending New York Center
Mon 03:41:33 PM 39.8833 -76.8167 240° Southwest 325 374 15,000 -67 Level Potomac TRACON
Mon 03:42:27 PM 39.8500 -76.9000 243° Southwest 297 342 14,800 -850 Descending Potomac TRACON
Mon 03:43:33 PM 39.8333 -77.0167 259° West 292 336 13,300 -1,240 Descending Potomac TRACON
Mon 03:44:28 PM 39.8000 -77.0833 237° Southwest 253 291 12,300 -1,388 Descending Potomac TRACON
Mon 03:45:34 PM 39.7500 -77.1500 226° Southwest 245 282 10,500 -1,550 Descending Potomac TRACON
Mon 03:46:28 PM 39.7167 -77.2167 237° Southwest 232 267 9,200 -1,339 Descending Potomac TRACON
Mon 03:47:35 PM 39.6667 -77.2833 226° Southwest 227 261 7,800 -1,323 Descending Potomac TRACON
Mon 03:48:35 PM 39.6167 -77.3000 194° South 213 245 6,400 -1,368 Descending Potomac TRACON
Mon 03:49:29 PM 39.5667 -77.2833 166° South 199 229 5,200 -737 Descending Potomac TRACON
Mon 03:50:29 PM 39.5500 -77.3333 247° West 204 235 5,000 -95 Descending Potomac TRACON
Mon 03:51:35 PM 39.5500 -77.4167 270° West 199 229 5,000 -143 Level Potomac TRACON
Mon 03:52:35 PM 39.5000 -77.4333 194° South 180 207 4,700 -522 Descending Potomac TRACON
Mon 03:53:30 PM 39.4667 -77.4333 180° South 177 204 4,000 -350 Descending Potomac TRACON
Mon 03:54:35 PM 39.4167 -77.4333 180° South 180 207 4,000  Level Potomac TRACON
Mon 03:55:36 PM 39.3667 -77.4333 180° South 166 191 4,000 -248 Level Potomac TRACON
Mon 03:56:36 PM 39.3167 -77.4333 180° South 155 178 3,500 -500 Descending Potomac TRACON
Mon 03:57:36 PM 39.2833 -77.4333 180° South 153 176 3,000 -263 Descending Potomac TRACON
Mon 03:58:30 PM 39.2333 -77.4333 180° South 153 176 3,000  Level Potomac TRACON
Mon 03:59:36 PM 39.1833 -77.4333 180° South 151 174 3,000  Level Potomac TRACON
Mon 04:00:36 PM 39.1500 -77.4333 180° South 155 178 3,000  Level Potomac TRACON
Mon 04:01:31 PM 39.1167 -77.4333 180° South 143 165 3,000 -248 Level Potomac TRACON
Mon 04:02:37 PM 39.0667 -77.4333 180° South 156 180 2,500 -619 Descending Potomac TRACON
Mon 04:03:37 PM 39.0333 -77.4333 180° South 143 165 1,700 -750 Descending Potomac TRACON
Mon 04:04:37 PM 38.9833 -77.4333 180° South 139 160 1,000 -700 Descending Potomac TRACON

Login

Don't have an account? Register now (free) for customized features, flight alerts, and more!